sensor_id;sensor_type;location;lat;lon;timestamp;temperature;humidity
9837;DHT22;4957;51.412;6.724;2023-08-20T00:00:53;21.40;99.90
9837;DHT22;4957;51.412;6.724;2023-08-20T00:03:18;21.30;99.90
9837;DHT22;4957;51.412;6.724;2023-08-20T00:05:44;21.30;99.90
9837;DHT22;4957;51.412;6.724;2023-08-20T00:08:10;21.30;99.90
9837;DHT22;4957;51.412;6.724;2023-08-20T00:10:36;21.30;99.90
9837;DHT22;4957;51.412;6.724;2023-08-20T00:13:01;21.20;99.90
9837;DHT22;4957;51.412;6.724;2023-08-20T00:15:27;21.20;99.90
9837;DHT22;4957;51.412;6.724;2023-08-20T00:17:54;21.20;99.90
9837;DHT22;4957;51.412;6.724;2023-08-20T00:20:21;21.20;99.90
9837;DHT22;4957;51.412;6.724;2023-08-20T00:22:47;21.20;99.90
9837;DHT22;4957;51.412;6.724;2023-08-20T00:25:14;21.10;99.90
9837;DHT22;4957;51.412;6.724;2023-08-20T00:27:41;21.10;99.90
9837;DHT22;4957;51.412;6.724;2023-08-20T00:30:08;21.10;99.90
9837;DHT22;4957;51.412;6.724;2023-08-20T00:32:34;21.10;99.90
9837;DHT22;4957;51.412;6.724;2023-08-20T00:35:00;21.10;99.90
9837;DHT22;4957;51.412;6.724;2023-08-20T00:37:26;21.00;99.90
9837;DHT22;4957;51.412;6.724;2023-08-20T00:39:51;21.00;99.90
9837;DHT22;4957;51.412;6.724;2023-08-20T00:42:17;21.00;99.90
9837;DHT22;4957;51.412;6.724;2023-08-20T00:44:43;21.00;99.90
9837;DHT22;4957;51.412;6.724;2023-08-20T00:47:13;21.00;99.90
9837;DHT22;4957;51.412;6.724;2023-08-20T00:49:39;20.90;99.90
9837;DHT22;4957;51.412;6.724;2023-08-20T00:52:08;20.90;99.90
9837;DHT22;4957;51.412;6.724;2023-08-20T00:54:34;20.90;99.90
9837;DHT22;4957;51.412;6.724;2023-08-20T00:57:01;20.90;99.90
9837;DHT22;4957;51.412;6.724;2023-08-20T00:59:29;20.90;99.90
9837;DHT22;4957;51.412;6.724;2023-08-20T01:01:55;20.90;99.90
9837;DHT22;4957;51.412;6.724;2023-08-20T01:04:21;20.80;99.90
9837;DHT22;4957;51.412;6.724;2023-08-20T01:12:22;20.70;99.90
9837;DHT22;4957;51.412;6.724;2023-08-20T01:14:49;20.70;99.90
9837;DHT22;4957;51.412;6.724;2023-08-20T01:17:15;20.70;99.90
9837;DHT22;4957;51.412;6.724;2023-08-20T01:19:41;20.70;99.90
9837;DHT22;4957;51.412;6.724;2023-08-20T01:28:24;20.60;99.90
9837;DHT22;4957;51.412;6.724;2023-08-20T01:30:50;20.60;99.90
9837;DHT22;4957;51.412;6.724;2023-08-20T01:33:18;20.60;99.90
9837;DHT22;4957;51.412;6.724;2023-08-20T01:35:44;20.60;99.90
9837;DHT22;4957;51.412;6.724;2023-08-20T01:38:10;20.50;99.90
9837;DHT22;4957;51.412;6.724;2023-08-20T01:40:36;20.60;99.90
9837;DHT22;4957;51.412;6.724;2023-08-20T01:43:02;20.50;99.90
9837;DHT22;4957;51.412;6.724;2023-08-20T01:45:27;20.50;99.90
9837;DHT22;4957;51.412;6.724;2023-08-20T01:47:53;20.50;99.90
9837;DHT22;4957;51.412;6.724;2023-08-20T01:50:19;20.50;99.90
9837;DHT22;4957;51.412;6.724;2023-08-20T01:52:44;20.50;99.90
9837;DHT22;4957;51.412;6.724;2023-08-20T01:55:11;20.40;99.90
9837;DHT22;4957;51.412;6.724;2023-08-20T01:57:37;20.40;99.90
9837;DHT22;4957;51.412;6.724;2023-08-20T02:00:03;20.40;99.90
9837;DHT22;4957;51.412;6.724;2023-08-20T02:02:32;20.40;99.90
9837;DHT22;4957;51.412;6.724;2023-08-20T02:04:59;20.40;99.90
9837;DHT22;4957;51.412;6.724;2023-08-20T02:07:25;20.40;99.90
9837;DHT22;4957;51.412;6.724;2023-08-20T02:09:51;20.30;99.90
9837;DHT22;4957;51.412;6.724;2023-08-20T02:12:17;20.30;99.90
9837;DHT22;4957;51.412;6.724;2023-08-20T02:14:43;20.30;99.90
9837;DHT22;4957;51.412;6.724;2023-08-20T02:17:08;20.30;99.90
9837;DHT22;4957;51.412;6.724;2023-08-20T02:19:34;20.30;99.90
9837;DHT22;4957;51.412;6.724;2023-08-20T02:22:00;20.30;99.90
9837;DHT22;4957;51.412;6.724;2023-08-20T02:24:26;20.30;99.90
9837;DHT22;4957;51.412;6.724;2023-08-20T02:26:51;20.30;99.90
9837;DHT22;4957;51.412;6.724;2023-08-20T02:29:17;20.30;99.90
9837;DHT22;4957;51.412;6.724;2023-08-20T02:31:43;20.30;99.90
9837;DHT22;4957;51.412;6.724;2023-08-20T02:34:08;20.30;99.90
9837;DHT22;4957;51.412;6.724;2023-08-20T02:36:34;20.30;99.90
9837;DHT22;4957;51.412;6.724;2023-08-20T02:39:00;20.40;99.90
9837;DHT22;4957;51.412;6.724;2023-08-20T02:41:25;20.30;99.90
9837;DHT22;4957;51.412;6.724;2023-08-20T02:43:51;20.30;99.90
9837;DHT22;4957;51.412;6.724;2023-08-20T02:46:17;20.30;99.90
9837;DHT22;4957;51.412;6.724;2023-08-20T02:48:42;20.30;99.90
9837;DHT22;4957;51.412;6.724;2023-08-20T02:51:08;20.30;99.90
9837;DHT22;4957;51.412;6.724;2023-08-20T02:53:34;20.30;99.90
9837;DHT22;4957;51.412;6.724;2023-08-20T02:55:59;20.30;99.90
9837;DHT22;4957;51.412;6.724;2023-08-20T02:58:25;20.30;99.90
9837;DHT22;4957;51.412;6.724;2023-08-20T03:00:51;20.30;99.90
9837;DHT22;4957;51.412;6.724;2023-08-20T03:03:16;20.30;99.90
9837;DHT22;4957;51.412;6.724;2023-08-20T03:05:42;20.20;99.90
9837;DHT22;4957;51.412;6.724;2023-08-20T03:08:08;20.20;99.90
9837;DHT22;4957;51.412;6.724;2023-08-20T03:10:35;20.20;99.90
9837;DHT22;4957;51.412;6.724;2023-08-20T03:13:01;20.20;99.90
9837;DHT22;4957;51.412;6.724;2023-08-20T03:15:28;20.20;99.90
9837;DHT22;4957;51.412;6.724;2023-08-20T03:17:54;20.20;99.90
9837;DHT22;4957;51.412;6.724;2023-08-20T03:20:20;20.20;99.90
9837;DHT22;4957;51.412;6.724;2023-08-20T03:22:46;20.20;99.90
9837;DHT22;4957;51.412;6.724;2023-08-20T03:25:11;20.20;99.90
9837;DHT22;4957;51.412;6.724;2023-08-20T03:27:37;20.20;99.90
9837;DHT22;4957;51.412;6.724;2023-08-20T03:30:04;20.20;99.90
9837;DHT22;4957;51.412;6.724;2023-08-20T03:32:30;20.20;99.90
9837;DHT22;4957;51.412;6.724;2023-08-20T03:34:56;20.20;99.90
9837;DHT22;4957;51.412;6.724;2023-08-20T03:37:24;20.20;99.90
9837;DHT22;4957;51.412;6.724;2023-08-20T03:39:50;20.20;99.90
9837;DHT22;4957;51.412;6.724;2023-08-20T03:42:16;20.20;99.90
9837;DHT22;4957;51.412;6.724;2023-08-20T03:44:41;20.20;99.90
9837;DHT22;4957;51.412;6.724;2023-08-20T03:47:07;20.20;99.90
9837;DHT22;4957;51.412;6.724;2023-08-20T03:49:33;20.10;99.90
9837;DHT22;4957;51.412;6.724;2023-08-20T03:51:59;20.10;99.90
9837;DHT22;4957;51.412;6.724;2023-08-20T03:54:27;20.10;99.90
9837;DHT22;4957;51.412;6.724;2023-08-20T03:56:54;20.10;99.90
9837;DHT22;4957;51.412;6.724;2023-08-20T03:59:19;20.10;99.90
9837;DHT22;4957;51.412;6.724;2023-08-20T04:01:45;20.10;99.90
9837;DHT22;4957;51.412;6.724;2023-08-20T04:04:11;20.10;99.90
9837;DHT22;4957;51.412;6.724;2023-08-20T04:06:36;20.00;99.90
9837;DHT22;4957;51.412;6.724;2023-08-20T04:09:02;20.00;99.90
9837;DHT22;4957;51.412;6.724;2023-08-20T04:11:28;20.00;99.90
9837;DHT22;4957;51.412;6.724;2023-08-20T04:13:54;20.00;99.90
9837;DHT22;4957;51.412;6.724;2023-08-20T04:16:20;19.90;99.90
9837;DHT22;4957;51.412;6.724;2023-08-20T04:18:45;19.90;99.90
9837;DHT22;4957;51.412;6.724;2023-08-20T04:21:11;19.90;99.90
9837;DHT22;4957;51.412;6.724;2023-08-20T04:23:37;19.90;99.90
9837;DHT22;4957;51.412;6.724;2023-08-20T04:26:02;19.80;99.90
9837;DHT22;4957;51.412;6.724;2023-08-20T04:28:28;19.80;99.90
9837;DHT22;4957;51.412;6.724;2023-08-20T04:30:54;19.80;99.90
9837;DHT22;4957;51.412;6.724;2023-08-20T04:33:20;19.80;99.90
9837;DHT22;4957;51.412;6.724;2023-08-20T04:35:48;19.70;99.90
9837;DHT22;4957;51.412;6.724;2023-08-20T04:38:15;19.70;99.90
9837;DHT22;4957;51.412;6.724;2023-08-20T04:40:41;19.70;99.90
9837;DHT22;4957;51.412;6.724;2023-08-20T04:43:07;19.70;99.90
9837;DHT22;4957;51.412;6.724;2023-08-20T04:45:33;19.60;99.90
9837;DHT22;4957;51.412;6.724;2023-08-20T04:47:59;19.60;99.90
9837;DHT22;4957;51.412;6.724;2023-08-20T04:50:25;19.60;99.90
9837;DHT22;4957;51.412;6.724;2023-08-20T04:52:50;19.60;99.90
9837;DHT22;4957;51.412;6.724;2023-08-20T04:55:16;19.60;99.90
9837;DHT22;4957;51.412;6.724;2023-08-20T04:57:42;19.60;99.90
9837;DHT22;4957;51.412;6.724;2023-08-20T05:00:08;19.60;99.90
9837;DHT22;4957;51.412;6.724;2023-08-20T05:02:35;19.60;99.90
9837;DHT22;4957;51.412;6.724;2023-08-20T05:05:02;19.60;99.90
9837;DHT22;4957;51.412;6.724;2023-08-20T05:07:28;19.60;99.90
9837;DHT22;4957;51.412;6.724;2023-08-20T05:09:53;19.50;99.90
9837;DHT22;4957;51.412;6.724;2023-08-20T05:12:19;19.60;99.90
9837;DHT22;4957;51.412;6.724;2023-08-20T05:14:45;19.50;99.90
9837;DHT22;4957;51.412;6.724;2023-08-20T05:17:11;19.50;99.90
9837;DHT22;4957;51.412;6.724;2023-08-20T05:19:36;19.50;99.90
9837;DHT22;4957;51.412;6.724;2023-08-20T05:22:02;19.50;99.90
9837;DHT22;4957;51.412;6.724;2023-08-20T05:24:28;19.50;99.90
9837;DHT22;4957;51.412;6.724;2023-08-20T05:27:06;19.50;99.90
9837;DHT22;4957;51.412;6.724;2023-08-20T05:29:32;19.50;99.90
9837;DHT22;4957;51.412;6.724;2023-08-20T05:31:58;19.50;99.90
9837;DHT22;4957;51.412;6.724;2023-08-20T05:34:24;19.50;99.90
9837;DHT22;4957;51.412;6.724;2023-08-20T05:36:50;19.50;99.90
9837;DHT22;4957;51.412;6.724;2023-08-20T05:39:15;19.50;99.90
9837;DHT22;4957;51.412;6.724;2023-08-20T05:41:41;19.50;99.90
9837;DHT22;4957;51.412;6.724;2023-08-20T05:44:07;19.60;99.90
9837;DHT22;4957;51.412;6.724;2023-08-20T05:46:32;19.60;99.90
9837;DHT22;4957;51.412;6.724;2023-08-20T05:48:58;19.60;99.90
9837;DHT22;4957;51.412;6.724;2023-08-20T05:51:24;19.70;99.90
9837;DHT22;4957;51.412;6.724;2023-08-20T05:53:49;19.70;99.90
9837;DHT22;4957;51.412;6.724;2023-08-20T05:56:15;19.70;99.90
9837;DHT22;4957;51.412;6.724;2023-08-20T05:58:41;19.80;99.90
9837;DHT22;4957;51.412;6.724;2023-08-20T06:01:06;19.80;99.90
9837;DHT22;4957;51.412;6.724;2023-08-20T06:03:32;19.80;99.90
9837;DHT22;4957;51.412;6.724;2023-08-20T06:05:58;19.90;99.90
9837;DHT22;4957;51.412;6.724;2023-08-20T06:08:24;20.00;99.90
9837;DHT22;4957;51.412;6.724;2023-08-20T06:10:50;20.00;99.90
9837;DHT22;4957;51.412;6.724;2023-08-20T06:13:16;20.10;99.90
9837;DHT22;4957;51.412;6.724;2023-08-20T06:15:41;20.20;99.90
9837;DHT22;4957;51.412;6.724;2023-08-20T06:18:07;20.30;99.90
9837;DHT22;4957;51.412;6.724;2023-08-20T06:20:33;20.30;99.90
9837;DHT22;4957;51.412;6.724;2023-08-20T06:22:58;20.40;99.90
9837;DHT22;4957;51.412;6.724;2023-08-20T06:25:24;20.50;99.90
9837;DHT22;4957;51.412;6.724;2023-08-20T06:27:50;20.60;99.90
9837;DHT22;4957;51.412;6.724;2023-08-20T06:30:15;20.60;99.90
9837;DHT22;4957;51.412;6.724;2023-08-20T06:32:43;20.70;99.90
9837;DHT22;4957;51.412;6.724;2023-08-20T06:35:09;20.80;99.90
9837;DHT22;4957;51.412;6.724;2023-08-20T06:37:35;20.90;99.90
9837;DHT22;4957;51.412;6.724;2023-08-20T06:40:01;21.00;99.90
9837;DHT22;4957;51.412;6.724;2023-08-20T06:42:26;21.10;99.90
9837;DHT22;4957;51.412;6.724;2023-08-20T06:44:52;21.20;99.90
9837;DHT22;4957;51.412;6.724;2023-08-20T06:47:18;21.30;99.90
9837;DHT22;4957;51.412;6.724;2023-08-20T06:49:43;21.40;99.90
9837;DHT22;4957;51.412;6.724;2023-08-20T06:52:09;21.50;99.90
9837;DHT22;4957;51.412;6.724;2023-08-20T06:54:35;21.70;99.90
9837;DHT22;4957;51.412;6.724;2023-08-20T06:57:00;21.80;99.90
9837;DHT22;4957;51.412;6.724;2023-08-20T06:59:26;21.90;99.90
9837;DHT22;4957;51.412;6.724;2023-08-20T07:01:52;22.00;99.90
9837;DHT22;4957;51.412;6.724;2023-08-20T07:04:18;22.20;99.90
9837;DHT22;4957;51.412;6.724;2023-08-20T07:06:44;22.30;99.90
9837;DHT22;4957;51.412;6.724;2023-08-20T07:09:09;22.40;99.90
9837;DHT22;4957;51.412;6.724;2023-08-20T07:11:35;22.60;99.90
9837;DHT22;4957;51.412;6.724;2023-08-20T07:14:01;22.80;99.90
9837;DHT22;4957;51.412;6.724;2023-08-20T07:16:26;22.90;99.90
9837;DHT22;4957;51.412;6.724;2023-08-20T07:18:52;23.00;99.90
9837;DHT22;4957;51.412;6.724;2023-08-20T07:21:18;23.20;99.90
9837;DHT22;4957;51.412;6.724;2023-08-20T07:23:44;23.30;99.90
9837;DHT22;4957;51.412;6.724;2023-08-20T07:26:11;23.50;99.90
9837;DHT22;4957;51.412;6.724;2023-08-20T07:28:40;23.60;99.90
9837;DHT22;4957;51.412;6.724;2023-08-20T07:31:32;23.80;99.90
9837;DHT22;4957;51.412;6.724;2023-08-20T07:34:01;24.00;99.90
9837;DHT22;4957;51.412;6.724;2023-08-20T07:36:27;24.10;99.90
9837;DHT22;4957;51.412;6.724;2023-08-20T07:38:53;24.20;99.90
9837;DHT22;4957;51.412;6.724;2023-08-20T07:41:20;24.50;99.90
9837;DHT22;4957;51.412;6.724;2023-08-20T07:43:46;24.60;99.90
9837;DHT22;4957;51.412;6.724;2023-08-20T07:46:12;24.80;99.90
9837;DHT22;4957;51.412;6.724;2023-08-20T07:48:38;25.00;99.90
9837;DHT22;4957;51.412;6.724;2023-08-20T07:51:04;25.10;99.90
9837;DHT22;4957;51.412;6.724;2023-08-20T07:53:31;25.30;99.90
9837;DHT22;4957;51.412;6.724;2023-08-20T07:55:56;25.50;99.90
9837;DHT22;4957;51.412;6.724;2023-08-20T07:58:22;25.60;99.90
9837;DHT22;4957;51.412;6.724;2023-08-20T08:00:48;25.80;99.90
9837;DHT22;4957;51.412;6.724;2023-08-20T08:03:13;26.00;99.90
9837;DHT22;4957;51.412;6.724;2023-08-20T08:05:51;26.20;99.90
9837;DHT22;4957;51.412;6.724;2023-08-20T08:08:18;26.30;99.90
9837;DHT22;4957;51.412;6.724;2023-08-20T08:10:45;26.50;99.90
9837;DHT22;4957;51.412;6.724;2023-08-20T08:13:12;26.70;99.90
9837;DHT22;4957;51.412;6.724;2023-08-20T08:15:38;26.80;99.90
9837;DHT22;4957;51.412;6.724;2023-08-20T08:18:04;27.00;99.90
9837;DHT22;4957;51.412;6.724;2023-08-20T08:20:30;27.20;99.90
9837;DHT22;4957;51.412;6.724;2023-08-20T08:22:55;27.40;99.90
9837;DHT22;4957;51.412;6.724;2023-08-20T08:25:21;27.60;99.90
9837;DHT22;4957;51.412;6.724;2023-08-20T08:27:46;27.70;99.90
9837;DHT22;4957;51.412;6.724;2023-08-20T08:30:12;27.90;99.90
9837;DHT22;4957;51.412;6.724;2023-08-20T08:32:38;28.10;99.90
9837;DHT22;4957;51.412;6.724;2023-08-20T08:35:04;28.30;99.90
9837;DHT22;4957;51.412;6.724;2023-08-20T08:37:30;28.40;99.90
9837;DHT22;4957;51.412;6.724;2023-08-20T08:39:55;28.70;99.90
9837;DHT22;4957;51.412;6.724;2023-08-20T08:42:22;28.80;99.90
9837;DHT22;4957;51.412;6.724;2023-08-20T08:44:50;29.00;99.90
9837;DHT22;4957;51.412;6.724;2023-08-20T08:47:16;29.10;99.90
9837;DHT22;4957;51.412;6.724;2023-08-20T08:49:43;29.20;99.90
9837;DHT22;4957;51.412;6.724;2023-08-20T08:52:10;29.30;99.90
9837;DHT22;4957;51.412;6.724;2023-08-20T08:54:36;29.30;99.90
9837;DHT22;4957;51.412;6.724;2023-08-20T08:57:03;29.40;99.90
9837;DHT22;4957;51.412;6.724;2023-08-20T08:59:29;29.40;99.50
9837;DHT22;4957;51.412;6.724;2023-08-20T09:01:55;29.50;99.20
9837;DHT22;4957;51.412;6.724;2023-08-20T09:04:23;29.50;99.10
9837;DHT22;4957;51.412;6.724;2023-08-20T09:06:49;29.50;99.00
9837;DHT22;4957;51.412;6.724;2023-08-20T09:09:17;29.50;98.60
9837;DHT22;4957;51.412;6.724;2023-08-20T09:11:43;29.50;98.00
9837;DHT22;4957;51.412;6.724;2023-08-20T09:14:23;29.60;97.70
9837;DHT22;4957;51.412;6.724;2023-08-20T09:17:01;29.60;97.50
9837;DHT22;4957;51.412;6.724;2023-08-20T09:19:34;29.60;97.30
9837;DHT22;4957;51.412;6.724;2023-08-20T09:22:00;29.70;97.10
9837;DHT22;4957;51.412;6.724;2023-08-20T09:27:10;29.90;96.20
9837;DHT22;4957;51.412;6.724;2023-08-20T09:32:15;30.10;95.70
9837;DHT22;4957;51.412;6.724;2023-08-20T09:34:41;30.10;95.70
9837;DHT22;4957;51.412;6.724;2023-08-20T09:37:14;30.20;95.40
9837;DHT22;4957;51.412;6.724;2023-08-20T09:39:40;30.30;95.00
9837;DHT22;4957;51.412;6.724;2023-08-20T09:42:08;30.30;94.90
9837;DHT22;4957;51.412;6.724;2023-08-20T09:44:36;30.40;95.10
9837;DHT22;4957;51.412;6.724;2023-08-20T09:47:05;30.50;95.00
9837;DHT22;4957;51.412;6.724;2023-08-20T09:49:35;30.60;94.90
9837;DHT22;4957;51.412;6.724;2023-08-20T09:52:04;30.80;94.70
9837;DHT22;4957;51.412;6.724;2023-08-20T09:57:07;31.00;93.70
9837;DHT22;4957;51.412;6.724;2023-08-20T09:59:35;31.00;93.70
9837;DHT22;4957;51.412;6.724;2023-08-20T10:02:01;31.10;93.00
9837;DHT22;4957;51.412;6.724;2023-08-20T10:04:28;31.10;92.70
9837;DHT22;4957;51.412;6.724;2023-08-20T10:06:55;31.20;92.40
9837;DHT22;4957;51.412;6.724;2023-08-20T10:09:24;31.20;92.20
9837;DHT22;4957;51.412;6.724;2023-08-20T10:11:49;31.20;92.10
9837;DHT22;4957;51.412;6.724;2023-08-20T10:14:16;31.20;91.90
9837;DHT22;4957;51.412;6.724;2023-08-20T10:16:41;31.20;92.00
9837;DHT22;4957;51.412;6.724;2023-08-20T10:19:07;31.30;91.60
9837;DHT22;4957;51.412;6.724;2023-08-20T10:21:33;31.30;91.50
9837;DHT22;4957;51.412;6.724;2023-08-20T10:24:04;31.30;91.50
9837;DHT22;4957;51.412;6.724;2023-08-20T10:26:33;31.40;91.50
9837;DHT22;4957;51.412;6.724;2023-08-20T10:29:36;31.50;91.20
9837;DHT22;4957;51.412;6.724;2023-08-20T10:32:12;31.70;90.90
9837;DHT22;4957;51.412;6.724;2023-08-20T10:34:43;31.90;91.10
9837;DHT22;4957;51.412;6.724;2023-08-20T10:37:26;32.00;90.50
9837;DHT22;4957;51.412;6.724;2023-08-20T10:39:56;32.10;89.80
9837;DHT22;4957;51.412;6.724;2023-08-20T10:42:26;32.20;89.20
9837;DHT22;4957;51.412;6.724;2023-08-20T10:45:00;32.30;88.20
9837;DHT22;4957;51.412;6.724;2023-08-20T10:47:36;32.40;88.00
9837;DHT22;4957;51.412;6.724;2023-08-20T10:50:02;32.40;87.30
9837;DHT22;4957;51.412;6.724;2023-08-20T10:52:27;32.40;87.30
9837;DHT22;4957;51.412;6.724;2023-08-20T10:54:56;32.40;86.60
9837;DHT22;4957;51.412;6.724;2023-08-20T10:57:21;32.40;86.00
9837;DHT22;4957;51.412;6.724;2023-08-20T10:59:57;32.50;86.50
9837;DHT22;4957;51.412;6.724;2023-08-20T11:02:26;32.50;86.20
9837;DHT22;4957;51.412;6.724;2023-08-20T11:04:53;32.50;86.50
9837;DHT22;4957;51.412;6.724;2023-08-20T11:07:20;32.60;86.40
9837;DHT22;4957;51.412;6.724;2023-08-20T11:09:45;32.70;85.90
9837;DHT22;4957;51.412;6.724;2023-08-20T11:12:20;32.80;85.60
9837;DHT22;4957;51.412;6.724;2023-08-20T11:14:46;33.00;84.10
9837;DHT22;4957;51.412;6.724;2023-08-20T11:17:12;33.00;83.50
9837;DHT22;4957;51.412;6.724;2023-08-20T11:19:38;33.10;82.60
9837;DHT22;4957;51.412;6.724;2023-08-20T11:22:04;33.20;82.20
9837;DHT22;4957;51.412;6.724;2023-08-20T11:24:30;33.40;81.00
9837;DHT22;4957;51.412;6.724;2023-08-20T11:26:56;33.50;80.60
9837;DHT22;4957;51.412;6.724;2023-08-20T11:29:21;33.60;81.60
9837;DHT22;4957;51.412;6.724;2023-08-20T11:31:48;33.80;80.20
9837;DHT22;4957;51.412;6.724;2023-08-20T11:34:14;33.90;79.00
9837;DHT22;4957;51.412;6.724;2023-08-20T11:36:40;34.00;78.90
9837;DHT22;4957;51.412;6.724;2023-08-20T11:39:07;34.10;78.10
9837;DHT22;4957;51.412;6.724;2023-08-20T11:41:36;34.20;77.50
9837;DHT22;4957;51.412;6.724;2023-08-20T11:44:02;34.40;77.20
9837;DHT22;4957;51.412;6.724;2023-08-20T11:46:29;34.50;76.20
9837;DHT22;4957;51.412;6.724;2023-08-20T11:49:11;34.60;75.70
9837;DHT22;4957;51.412;6.724;2023-08-20T11:51:38;34.70;72.80
9837;DHT22;4957;51.412;6.724;2023-08-20T11:54:12;34.80;71.50
9837;DHT22;4957;51.412;6.724;2023-08-20T11:56:49;34.90;70.30
9837;DHT22;4957;51.412;6.724;2023-08-20T11:59:17;35.00;70.10
9837;DHT22;4957;51.412;6.724;2023-08-20T12:01:43;35.10;70.80
9837;DHT22;4957;51.412;6.724;2023-08-20T12:04:09;35.10;70.20
9837;DHT22;4957;51.412;6.724;2023-08-20T12:06:36;35.20;69.50
9837;DHT22;4957;51.412;6.724;2023-08-20T12:09:21;35.30;69.20
9837;DHT22;4957;51.412;6.724;2023-08-20T12:11:54;35.30;67.70
9837;DHT22;4957;51.412;6.724;2023-08-20T12:14:21;35.30;67.90
9837;DHT22;4957;51.412;6.724;2023-08-20T12:16:47;35.40;68.40
9837;DHT22;4957;51.412;6.724;2023-08-20T12:19:13;35.50;68.40
9837;DHT22;4957;51.412;6.724;2023-08-20T12:21:40;35.50;67.80
9837;DHT22;4957;51.412;6.724;2023-08-20T12:24:08;35.50;67.10
9837;DHT22;4957;51.412;6.724;2023-08-20T12:26:33;35.60;66.90
9837;DHT22;4957;51.412;6.724;2023-08-20T12:28:59;35.60;66.70
9837;DHT22;4957;51.412;6.724;2023-08-20T12:31:25;35.60;66.70
9837;DHT22;4957;51.412;6.724;2023-08-20T12:33:50;35.60;65.90
9837;DHT22;4957;51.412;6.724;2023-08-20T12:36:16;35.60;65.30
9837;DHT22;4957;51.412;6.724;2023-08-20T12:38:42;35.60;65.00
9837;DHT22;4957;51.412;6.724;2023-08-20T12:41:07;35.60;64.70
9837;DHT22;4957;51.412;6.724;2023-08-20T12:43:33;35.50;64.50
9837;DHT22;4957;51.412;6.724;2023-08-20T12:45:59;35.50;65.10
9837;DHT22;4957;51.412;6.724;2023-08-20T12:48:25;35.40;64.30
9837;DHT22;4957;51.412;6.724;2023-08-20T12:50:50;35.40;64.20
9837;DHT22;4957;51.412;6.724;2023-08-20T12:53:16;35.30;63.70
9837;DHT22;4957;51.412;6.724;2023-08-20T12:55:42;35.30;63.10
9837;DHT22;4957;51.412;6.724;2023-08-20T12:58:11;35.20;62.70
9837;DHT22;4957;51.412;6.724;2023-08-20T13:00:36;35.20;62.10
9837;DHT22;4957;51.412;6.724;2023-08-20T13:03:02;35.20;61.80
9837;DHT22;4957;51.412;6.724;2023-08-20T13:05:28;35.10;61.00
9837;DHT22;4957;51.412;6.724;2023-08-20T13:07:54;35.10;61.00
9837;DHT22;4957;51.412;6.724;2023-08-20T13:10:21;35.00;60.50
9837;DHT22;4957;51.412;6.724;2023-08-20T13:12:50;34.90;61.10
9837;DHT22;4957;51.412;6.724;2023-08-20T13:15:17;34.80;60.00
9837;DHT22;4957;51.412;6.724;2023-08-20T13:17:45;34.80;60.30
9837;DHT22;4957;51.412;6.724;2023-08-20T13:20:11;34.70;59.70
9837;DHT22;4957;51.412;6.724;2023-08-20T13:22:36;34.70;59.80
9837;DHT22;4957;51.412;6.724;2023-08-20T13:25:02;34.60;59.60
9837;DHT22;4957;51.412;6.724;2023-08-20T13:27:30;34.50;59.30
9837;DHT22;4957;51.412;6.724;2023-08-20T13:29:56;34.50;58.60
9837;DHT22;4957;51.412;6.724;2023-08-20T13:32:22;34.40;58.70
9837;DHT22;4957;51.412;6.724;2023-08-20T13:34:49;34.30;58.60
9837;DHT22;4957;51.412;6.724;2023-08-20T13:37:15;34.30;58.60
9837;DHT22;4957;51.412;6.724;2023-08-20T13:39:40;34.20;58.70
9837;DHT22;4957;51.412;6.724;2023-08-20T13:42:06;34.20;59.10
9837;DHT22;4957;51.412;6.724;2023-08-20T13:44:32;34.10;59.00
9837;DHT22;4957;51.412;6.724;2023-08-20T13:46:58;34.00;58.90
9837;DHT22;4957;51.412;6.724;2023-08-20T13:49:24;34.00;58.60
9837;DHT22;4957;51.412;6.724;2023-08-20T13:51:50;33.90;58.80
9837;DHT22;4957;51.412;6.724;2023-08-20T13:54:16;33.80;58.90
9837;DHT22;4957;51.412;6.724;2023-08-20T13:56:42;33.80;59.00
9837;DHT22;4957;51.412;6.724;2023-08-20T13:59:09;33.70;59.10
9837;DHT22;4957;51.412;6.724;2023-08-20T14:01:35;33.60;58.90
9837;DHT22;4957;51.412;6.724;2023-08-20T14:04:01;33.50;59.10
9837;DHT22;4957;51.412;6.724;2023-08-20T14:06:28;33.40;59.00
9837;DHT22;4957;51.412;6.724;2023-08-20T14:08:54;33.40;58.90
9837;DHT22;4957;51.412;6.724;2023-08-20T14:11:20;33.30;58.90
9837;DHT22;4957;51.412;6.724;2023-08-20T14:13:46;33.20;59.10
9837;DHT22;4957;51.412;6.724;2023-08-20T14:16:12;33.10;59.40
9837;DHT22;4957;51.412;6.724;2023-08-20T14:18:38;33.00;59.40
9837;DHT22;4957;51.412;6.724;2023-08-20T14:21:03;32.90;59.10
9837;DHT22;4957;51.412;6.724;2023-08-20T14:23:29;32.90;59.20
9837;DHT22;4957;51.412;6.724;2023-08-20T14:25:55;32.70;59.30
9837;DHT22;4957;51.412;6.724;2023-08-20T14:28:21;32.70;59.30
9837;DHT22;4957;51.412;6.724;2023-08-20T14:30:48;32.60;59.20
9837;DHT22;4957;51.412;6.724;2023-08-20T14:33:15;32.50;59.00
9837;DHT22;4957;51.412;6.724;2023-08-20T14:35:41;32.50;59.40
9837;DHT22;4957;51.412;6.724;2023-08-20T14:38:06;32.40;59.10
9837;DHT22;4957;51.412;6.724;2023-08-20T14:40:36;32.30;59.30
9837;DHT22;4957;51.412;6.724;2023-08-20T14:43:05;32.20;59.20
9837;DHT22;4957;51.412;6.724;2023-08-20T14:45:31;32.20;59.60
9837;DHT22;4957;51.412;6.724;2023-08-20T14:47:57;32.10;59.50
9837;DHT22;4957;51.412;6.724;2023-08-20T14:50:22;32.10;59.60
9837;DHT22;4957;51.412;6.724;2023-08-20T14:52:48;32.10;59.60
9837;DHT22;4957;51.412;6.724;2023-08-20T14:55:18;32.00;59.60
9837;DHT22;4957;51.412;6.724;2023-08-20T14:57:44;31.90;59.70
9837;DHT22;4957;51.412;6.724;2023-08-20T15:00:10;31.90;59.90
9837;DHT22;4957;51.412;6.724;2023-08-20T15:02:40;31.80;59.80
9837;DHT22;4957;51.412;6.724;2023-08-20T15:05:06;31.80;60.30
9837;DHT22;4957;51.412;6.724;2023-08-20T15:07:31;31.80;60.50
9837;DHT22;4957;51.412;6.724;2023-08-20T15:09:57;31.80;61.00
9837;DHT22;4957;51.412;6.724;2023-08-20T15:12:23;31.80;61.00
9837;DHT22;4957;51.412;6.724;2023-08-20T15:14:48;31.80;60.80
9837;DHT22;4957;51.412;6.724;2023-08-20T15:17:14;31.70;60.60
9837;DHT22;4957;51.412;6.724;2023-08-20T15:19:39;31.70;60.80
9837;DHT22;4957;51.412;6.724;2023-08-20T15:22:05;31.70;60.80
9837;DHT22;4957;51.412;6.724;2023-08-20T15:24:31;31.70;60.80
9837;DHT22;4957;51.412;6.724;2023-08-20T15:26:57;31.70;60.80
9837;DHT22;4957;51.412;6.724;2023-08-20T15:29:22;31.60;60.40
9837;DHT22;4957;51.412;6.724;2023-08-20T15:31:48;31.60;60.60
9837;DHT22;4957;51.412;6.724;2023-08-20T15:34:17;31.50;60.70
9837;DHT22;4957;51.412;6.724;2023-08-20T15:36:43;31.50;61.20
9837;DHT22;4957;51.412;6.724;2023-08-20T15:39:09;31.50;61.50
9837;DHT22;4957;51.412;6.724;2023-08-20T15:41:34;31.40;61.50
9837;DHT22;4957;51.412;6.724;2023-08-20T15:44:00;31.40;61.20
9837;DHT22;4957;51.412;6.724;2023-08-20T15:46:26;31.40;61.60
9837;DHT22;4957;51.412;6.724;2023-08-20T15:48:52;31.30;61.70
9837;DHT22;4957;51.412;6.724;2023-08-20T15:51:18;31.20;61.30
9837;DHT22;4957;51.412;6.724;2023-08-20T15:53:45;31.20;61.60
9837;DHT22;4957;51.412;6.724;2023-08-20T15:56:10;31.10;61.30
9837;DHT22;4957;51.412;6.724;2023-08-20T15:58:36;31.00;61.40
9837;DHT22;4957;51.412;6.724;2023-08-20T16:01:02;31.00;61.90
9837;DHT22;4957;51.412;6.724;2023-08-20T16:03:28;30.90;62.30
9837;DHT22;4957;51.412;6.724;2023-08-20T16:05:54;30.90;62.20
9837;DHT22;4957;51.412;6.724;2023-08-20T16:08:20;30.80;62.10
9837;DHT22;4957;51.412;6.724;2023-08-20T16:10:46;30.80;61.40
9837;DHT22;4957;51.412;6.724;2023-08-20T16:13:12;30.80;61.60
9837;DHT22;4957;51.412;6.724;2023-08-20T16:15:37;30.60;61.40
9837;DHT22;4957;51.412;6.724;2023-08-20T16:18:03;30.60;61.60